createdAt,value
2023-05-10T05:03:06.223Z,44.84
2023-05-10T05:04:06.152Z,44.87
2023-05-10T05:05:06.184Z,44.84
2023-05-10T05:06:07.220Z,44.83
2023-05-10T05:07:06.226Z,44.87
2023-05-10T05:08:06.245Z,44.93
2023-05-10T05:09:06.315Z,44.87
2023-05-10T05:10:07.311Z,44.80
2023-05-10T05:11:07.341Z,44.85
2023-05-10T05:12:06.414Z,44.83
2023-05-10T05:13:06.350Z,44.83
2023-05-10T05:14:07.319Z,44.84
2023-05-10T05:15:09.040Z,44.74
2023-05-10T05:16:06.453Z,44.80
2023-05-10T05:17:07.343Z,44.82
2023-05-10T05:18:06.353Z,44.80
2023-05-10T05:19:06.363Z,44.83
2023-05-10T05:20:07.346Z,44.77
2023-05-10T05:21:07.341Z,44.78
2023-05-10T05:22:06.325Z,44.79
2023-05-10T05:23:06.315Z,44.78
2023-05-10T05:24:06.302Z,44.73
2023-05-10T05:25:06.292Z,44.78
2023-05-10T05:26:07.286Z,44.82
2023-05-10T05:27:07.275Z,44.78
2023-05-10T05:28:07.316Z,44.77
2023-05-10T05:29:06.288Z,44.78
2023-05-10T05:30:07.272Z,44.80
2023-05-10T05:31:06.338Z,44.77
2023-05-10T05:32:07.313Z,44.76
2023-05-10T05:33:07.283Z,44.78
2023-05-10T05:34:07.232Z,44.77
2023-05-10T05:35:06.250Z,44.73
2023-05-10T05:36:06.227Z,44.78
2023-05-10T05:37:06.242Z,44.80
2023-05-10T05:38:07.242Z,44.75
2023-05-10T05:39:07.193Z,44.72
2023-05-10T05:40:07.172Z,44.78
2023-05-10T05:41:06.162Z,44.73
2023-05-10T05:42:06.594Z,44.75
2023-05-10T05:43:07.139Z,44.74
2023-05-10T05:44:06.149Z,44.71
2023-05-10T05:45:06.165Z,44.68
2023-05-10T05:46:07.239Z,44.74
2023-05-10T05:47:07.282Z,44.64
2023-05-10T05:48:07.376Z,44.73
2023-05-10T05:49:07.398Z,44.68
2023-05-10T05:50:07.438Z,44.68
2023-05-10T05:51:07.389Z,44.60
2023-05-10T05:52:07.556Z,44.59
2023-05-10T05:53:07.605Z,44.64
2023-05-10T05:54:07.661Z,44.59
2023-05-10T05:55:07.712Z,44.63
2023-05-10T05:56:07.786Z,44.63
2023-05-10T05:57:07.824Z,44.62
2023-05-10T05:58:07.869Z,44.64
2023-05-10T05:59:08.008Z,44.62
2023-05-10T06:00:08.043Z,44.59
2023-05-10T06:01:08.084Z,44.59
2023-05-10T06:02:08.664Z,44.53
2023-05-10T06:03:07.306Z,44.54
2023-05-10T06:04:07.393Z,44.77
2023-05-10T06:05:07.283Z,44.56
2023-05-10T06:06:08.373Z,44.65
2023-05-10T06:07:08.403Z,45.29
2023-05-10T06:08:08.419Z,45.10
2023-05-10T06:09:07.479Z,45.17
2023-05-10T06:10:08.517Z,45.66
2023-05-10T06:11:08.564Z,45.23
2023-05-10T06:12:07.606Z,44.95
2023-05-10T06:13:07.732Z,44.71
2023-05-10T06:14:08.677Z,44.51
2023-05-10T06:15:08.723Z,44.70
2023-05-10T06:16:08.719Z,44.90
2023-05-10T06:17:07.773Z,45.47
2023-05-10T06:18:08.838Z,45.26
2023-05-10T06:19:08.845Z,45.29
2023-05-10T06:20:08.860Z,45.33
2023-05-10T06:21:08.888Z,44.68
2023-05-10T06:22:07.943Z,44.86
2023-05-10T06:23:07.924Z,45.06
2023-05-10T06:24:08.938Z,45.36
2023-05-10T06:25:07.956Z,45.07
2023-05-10T06:26:08.963Z,45.18
2023-05-10T06:27:08.002Z,44.77
2023-05-10T06:28:07.994Z,44.64
2023-05-10T06:29:08.967Z,45.11
2023-05-10T06:30:13.023Z,45.69
2023-05-10T06:31:08.040Z,45.28
2023-05-10T06:32:09.085Z,45.01
2023-05-10T06:33:09.122Z,45.02
2023-05-10T06:34:07.976Z,44.74
2023-05-10T06:35:08.976Z,45.97
2023-05-10T06:36:07.997Z,45.61
2023-05-10T06:37:09.066Z,46.06
2023-05-10T06:38:08.008Z,45.90
2023-05-10T06:39:08.990Z,45.43
2023-05-10T06:40:08.008Z,45.87
2023-05-10T06:41:08.974Z,45.39
2023-05-10T06:42:08.961Z,45.47
2023-05-10T06:43:08.958Z,45.97
2023-05-10T06:44:08.961Z,46.00
2023-05-10T06:45:08.965Z,45.89
2023-05-10T06:46:08.990Z,46.16
2023-05-10T06:47:08.964Z,46.51
2023-05-10T06:48:07.984Z,46.10
2023-05-10T06:49:08.973Z,46.22
2023-05-10T06:50:07.984Z,46.11
2023-05-10T06:51:07.963Z,46.04
2023-05-10T06:52:09.145Z,46.44
2023-05-10T06:53:08.969Z,46.09
2023-05-10T06:54:09.042Z,45.70
2023-05-10T06:55:08.975Z,45.46
2023-05-10T06:56:07.971Z,45.49
2023-05-10T06:57:19.509Z,46.15
2023-05-10T06:58:08.972Z,45.96
2023-05-10T06:59:09.040Z,46.03
2023-05-10T07:00:08.076Z,46.05
2023-05-10T07:01:08.041Z,46.23
2023-05-10T07:02:09.065Z,46.34
2023-05-10T07:03:07.977Z,46.09
2023-05-10T07:04:07.935Z,46.80
2023-05-10T07:05:07.921Z,47.41
2023-05-10T07:06:13.326Z,47.01
2023-05-10T07:07:08.904Z,47.13
2023-05-10T07:08:07.893Z,47.19
2023-05-10T07:09:08.906Z,47.00
2023-05-10T07:10:08.921Z,47.11
2023-05-10T07:11:08.888Z,46.98
2023-05-10T07:12:11.054Z,47.36
2023-05-10T07:13:08.957Z,46.95
2023-05-10T07:14:08.894Z,47.43
2023-05-10T07:15:07.864Z,47.25
2023-05-10T07:16:08.938Z,47.57
2023-05-10T07:17:08.862Z,47.53
2023-05-10T07:18:08.912Z,47.31
2023-05-10T07:19:08.834Z,47.39
2023-05-10T07:20:07.823Z,46.60
2023-05-10T07:21:07.861Z,46.99
2023-05-10T07:22:07.837Z,47.67
2023-05-10T07:23:07.798Z,47.43
2023-05-10T07:24:07.799Z,47.82
2023-05-10T07:25:08.800Z,47.54
2023-05-10T07:26:08.819Z,47.03
2023-05-10T07:27:07.783Z,47.18
2023-05-10T07:28:08.764Z,46.75
2023-05-10T07:29:08.757Z,46.48
2023-05-10T07:30:08.761Z,46.60
2023-05-10T07:31:07.790Z,46.25
2023-05-10T07:32:08.811Z,46.82
2023-05-10T07:33:07.864Z,47.53
2023-05-10T07:34:08.912Z,47.33
2023-05-10T07:35:08.000Z,47.07
2023-05-10T07:36:09.001Z,46.51
2023-05-10T07:37:08.140Z,46.29
2023-05-10T07:38:08.112Z,46.06
2023-05-10T07:39:09.197Z,46.12
2023-05-10T07:40:09.244Z,45.99
2023-05-10T07:41:08.287Z,46.01
2023-05-10T07:42:09.389Z,46.19
2023-05-10T07:43:08.334Z,46.13
2023-05-10T07:44:08.321Z,46.03
2023-05-10T07:45:08.343Z,46.22
2023-05-10T07:46:08.405Z,46.12
2023-05-10T07:47:09.666Z,46.24
2023-05-10T07:48:09.530Z,46.14
2023-05-10T07:49:09.347Z,46.18
2023-05-10T07:50:09.350Z,46.14
2023-05-10T07:51:09.326Z,45.92
2023-05-10T07:52:09.664Z,46.07
2023-05-10T07:53:09.492Z,45.99
2023-05-10T07:54:09.343Z,46.05
2023-05-10T07:55:09.383Z,46.03
2023-05-10T07:56:09.413Z,46.06
2023-05-10T07:57:08.373Z,46.23
2023-05-10T07:58:09.423Z,46.17
2023-05-10T07:59:11.330Z,46.13
2023-05-10T08:00:08.347Z,46.09
2023-05-10T08:01:08.330Z,46.08
2023-05-10T08:02:08.414Z,45.94
2023-05-10T08:03:08.516Z,46.01
2023-05-10T08:04:09.390Z,46.10
2023-05-10T08:05:08.292Z,45.94
2023-05-10T08:06:09.281Z,45.95
2023-05-10T08:07:09.294Z,46.01
2023-05-10T08:08:08.279Z,45.85
2023-05-10T08:09:08.280Z,45.76
2023-05-10T08:10:09.272Z,45.81
2023-05-10T08:11:09.255Z,45.82
2023-05-10T08:12:09.255Z,45.70
2023-05-10T08:13:09.251Z,45.72
2023-05-10T08:14:09.253Z,45.82
2023-05-10T08:15:08.236Z,45.78
2023-05-10T08:16:09.256Z,45.82
2023-05-10T08:17:08.231Z,45.72
2023-05-10T08:18:08.237Z,45.81
2023-05-10T08:19:08.289Z,45.84
2023-05-10T08:20:08.202Z,45.84
2023-05-10T08:21:08.185Z,45.71
2023-05-10T08:22:09.199Z,45.62
2023-05-10T08:23:09.176Z,45.52
2023-05-10T08:24:09.163Z,45.50
2023-05-10T08:25:08.165Z,45.56
2023-05-10T08:26:09.144Z,45.48
2023-05-10T08:27:09.175Z,45.50
2023-05-10T08:28:09.894Z,45.38
2023-05-10T08:29:09.198Z,45.51
2023-05-10T08:30:08.374Z,45.36
2023-05-10T08:31:08.302Z,45.27
2023-05-10T08:32:09.360Z,45.31
2023-05-10T08:33:09.329Z,45.37
2023-05-10T08:34:09.320Z,45.30
2023-05-10T08:35:08.347Z,45.26
2023-05-10T08:36:09.398Z,45.30
2023-05-10T08:37:09.474Z,45.20
2023-05-10T08:38:08.489Z,45.23
2023-05-10T08:39:23.071Z,45.22
2023-05-10T08:40:09.469Z,45.23
2023-05-10T08:41:09.444Z,45.13
2023-05-10T08:42:08.467Z,45.16
2023-05-10T08:43:08.711Z,45.10
2023-05-10T08:44:09.424Z,45.05
2023-05-10T08:45:08.416Z,45.04
2023-05-10T08:46:09.505Z,45.09
2023-05-10T08:47:09.500Z,45.08
2023-05-10T08:48:09.525Z,45.00
2023-05-10T08:49:08.412Z,45.00
2023-05-10T08:50:08.402Z,44.98
2023-05-10T08:51:09.371Z,44.92
2023-05-10T08:52:09.371Z,44.91
2023-05-10T08:53:08.682Z,44.81
2023-05-10T08:54:09.364Z,44.87
2023-05-10T08:55:08.350Z,44.94
2023-05-10T08:56:09.344Z,44.83
2023-05-10T08:57:09.332Z,44.83
2023-05-10T08:58:09.713Z,44.77
2023-05-10T08:59:09.329Z,44.82
2023-05-10T09:00:08.299Z,44.71
2023-05-10T09:01:09.444Z,44.67
2023-05-10T09:02:09.334Z,44.78
2023-05-10T09:03:09.336Z,44.68
2023-05-10T09:04:09.332Z,44.62
2023-05-10T09:05:09.321Z,44.58
2023-05-10T09:06:08.266Z,44.54
2023-05-10T09:07:08.264Z,44.57
2023-05-10T09:08:09.272Z,44.61
2023-05-10T09:09:09.255Z,44.56
2023-05-10T09:10:09.249Z,44.57
2023-05-10T09:11:09.245Z,44.49
2023-05-10T09:12:08.251Z,44.44
2023-05-10T09:13:09.319Z,44.55
2023-05-10T09:14:09.240Z,44.51
2023-05-10T09:15:08.219Z,44.53
2023-05-10T09:16:20.428Z,44.47
2023-05-10T09:17:09.347Z,44.44
2023-05-10T09:18:08.290Z,44.43
2023-05-10T09:19:08.411Z,44.44
2023-05-10T09:20:09.173Z,44.46
2023-05-10T09:21:09.179Z,44.41
2023-05-10T09:22:08.157Z,44.44
2023-05-10T09:23:08.171Z,44.35
2023-05-10T09:24:09.167Z,44.35
2023-05-10T09:25:09.159Z,44.35
2023-05-10T09:26:08.150Z,44.32
2023-05-10T09:27:08.125Z,44.31
2023-05-10T09:28:09.116Z,44.33
2023-05-10T09:29:08.111Z,44.28
2023-05-10T09:30:09.098Z,44.33
2023-05-10T09:31:08.156Z,44.24
2023-05-10T09:32:09.110Z,44.19
2023-05-10T09:33:08.160Z,44.21
2023-05-10T09:34:09.111Z,44.18
2023-05-10T09:35:09.062Z,44.19
2023-05-10T09:36:09.071Z,44.16
2023-05-10T09:37:08.053Z,44.22
2023-05-10T09:38:09.069Z,44.18
2023-05-10T09:39:08.051Z,44.11
2023-05-10T09:40:09.047Z,44.13
2023-05-10T09:41:09.040Z,44.10
2023-05-10T09:42:08.038Z,44.06
2023-05-10T09:43:09.020Z,44.08
2023-05-10T09:44:09.012Z,44.04
2023-05-10T09:45:09.004Z,44.06
2023-05-10T09:46:09.017Z,44.03
2023-05-10T09:47:09.000Z,44.07
2023-05-10T09:48:09.278Z,43.98
2023-05-10T09:49:08.983Z,43.98
2023-05-10T09:50:07.985Z,43.98
2023-05-10T09:51:07.965Z,44.06
2023-05-10T09:52:09.033Z,44.07
2023-05-10T09:53:08.216Z,44.12
2023-05-10T09:54:07.971Z,44.08
2023-05-10T09:55:08.979Z,44.14
2023-05-10T09:56:08.957Z,44.19
2023-05-10T09:57:07.957Z,44.20
2023-05-10T09:58:07.936Z,44.23
2023-05-10T09:59:08.947Z,44.19
2023-05-10T10:00:08.994Z,44.19
2023-05-10T10:01:08.931Z,44.13
2023-05-10T10:02:08.927Z,44.14
2023-05-10T10:03:08.013Z,44.16
2023-05-10T10:04:07.887Z,44.18
2023-05-10T10:05:08.926Z,44.15
2023-05-10T10:06:15.989Z,44.18
2023-05-10T10:07:08.879Z,44.15
2023-05-10T10:08:08.853Z,44.23
2023-05-10T10:09:08.921Z,44.28
2023-05-10T10:10:07.819Z,44.35
2023-05-10T10:11:07.833Z,44.29
2023-05-10T10:12:08.810Z,44.44
2023-05-10T10:13:08.826Z,44.34
2023-05-10T10:14:07.800Z,44.40
2023-05-10T10:15:07.809Z,44.41
2023-05-10T10:16:08.840Z,44.36
2023-05-10T10:17:09.008Z,44.41
2023-05-10T10:18:07.836Z,44.51
2023-05-10T10:19:07.771Z,44.45
2023-05-10T10:20:08.725Z,44.42
2023-05-10T10:21:08.976Z,44.45
2023-05-10T10:22:09.014Z,44.51
2023-05-10T10:23:08.024Z,44.47
2023-05-10T10:24:08.029Z,44.45
2023-05-10T10:25:09.018Z,44.36
2023-05-10T10:26:09.029Z,44.41
2023-05-10T10:27:08.047Z,44.40
2023-05-10T10:28:09.043Z,44.27
2023-05-10T10:29:09.041Z,44.26
2023-05-10T10:30:09.039Z,44.33
2023-05-10T10:31:09.085Z,44.36
2023-05-10T10:32:08.069Z,44.42
2023-05-10T10:33:16.864Z,44.40
2023-05-10T10:34:09.059Z,44.53
2023-05-10T10:35:09.068Z,44.47
2023-05-10T10:36:08.053Z,44.49
2023-05-10T10:37:09.040Z,44.48
2023-05-10T10:38:08.052Z,44.46
2023-05-10T10:39:09.026Z,44.46
2023-05-10T10:40:08.025Z,44.48
2023-05-10T10:41:09.018Z,44.51
2023-05-10T10:42:08.014Z,44.58
2023-05-10T10:43:09.000Z,44.50
2023-05-10T10:44:09.241Z,44.54
2023-05-10T10:45:08.989Z,44.62
2023-05-10T10:46:08.981Z,44.50
2023-05-10T10:47:09.049Z,44.89
2023-05-10T10:48:07.984Z,44.79
2023-05-10T10:49:08.951Z,44.65
2023-05-10T10:50:08.964Z,44.63
2023-05-10T10:51:08.152Z,44.58
2023-05-10T10:52:08.947Z,44.53
2023-05-10T10:53:08.012Z,44.51
2023-05-10T10:54:08.974Z,44.53
2023-05-10T10:55:08.911Z,44.50
2023-05-10T10:56:07.926Z,44.54
2023-05-10T10:57:07.907Z,44.54
2023-05-10T10:58:07.911Z,44.66
2023-05-10T10:59:07.895Z,44.63
2023-05-10T11:00:08.872Z,44.62
2023-05-10T11:01:08.967Z,44.59
2023-05-10T11:02:08.884Z,44.56
2023-05-10T11:03:08.009Z,44.55
2023-05-10T11:04:08.920Z,44.55
2023-05-10T11:05:07.848Z,44.57
2023-05-10T11:06:07.838Z,44.65
2023-05-10T11:07:08.833Z,44.54
2023-05-10T11:08:08.816Z,44.55
2023-05-10T11:09:08.828Z,44.69
2023-05-10T11:10:07.841Z,44.58
2023-05-10T11:11:07.845Z,44.51
2023-05-10T11:12:07.854Z,44.42
2023-05-10T11:13:08.942Z,44.33
2023-05-10T11:14:08.974Z,44.29
2023-05-10T11:15:09.047Z,44.33
2023-05-10T11:16:09.120Z,44.31
2023-05-10T11:17:09.216Z,44.31
2023-05-10T11:18:09.201Z,44.24
2023-05-10T11:19:08.356Z,44.32
2023-05-10T11:20:09.245Z,44.28
2023-05-10T11:21:08.287Z,44.23
2023-05-10T11:22:09.310Z,44.17
2023-05-10T11:23:08.338Z,44.10
2023-05-10T11:24:09.374Z,44.34
2023-05-10T11:25:09.785Z,44.16
2023-05-10T11:26:09.435Z,44.16
2023-05-10T11:27:09.468Z,44.15
2023-05-10T11:28:08.494Z,44.20
2023-05-10T11:29:09.539Z,44.24
2023-05-10T11:30:09.510Z,44.20
2023-05-10T11:31:08.556Z,44.16
2023-05-10T11:32:09.547Z,44.31
2023-05-10T11:33:09.806Z,44.37
2023-05-10T11:34:08.628Z,44.43
2023-05-10T11:35:08.659Z,44.65
2023-05-10T11:36:08.697Z,44.71
2023-05-10T11:37:09.774Z,44.68
2023-05-10T11:38:08.829Z,44.69
2023-05-10T11:39:10.262Z,44.85
2023-05-10T11:40:09.974Z,44.87
2023-05-10T11:41:10.037Z,44.81
2023-05-10T11:42:10.074Z,44.84
2023-05-10T11:43:09.158Z,44.75
2023-05-10T11:44:10.194Z,44.76
2023-05-10T11:45:10.233Z,44.88
2023-05-10T11:46:10.319Z,44.81
2023-05-10T11:47:09.336Z,44.93
2023-05-10T11:48:09.422Z,44.85
2023-05-10T11:49:10.500Z,44.75
2023-05-10T11:50:09.407Z,44.70
2023-05-10T11:51:09.392Z,44.64
2023-05-10T11:52:09.384Z,44.70
2023-05-10T11:53:09.395Z,44.63
2023-05-10T11:54:10.464Z,44.63
2023-05-10T11:55:09.382Z,44.65
2023-05-10T11:56:10.386Z,44.60
2023-05-10T11:57:10.401Z,44.62
2023-05-10T11:58:09.364Z,44.60
2023-05-10T11:59:10.388Z,44.58
2023-05-10T12:00:10.364Z,44.47
2023-05-10T12:01:09.367Z,44.53
2023-05-10T12:02:10.360Z,44.82
2023-05-10T12:03:10.483Z,44.82
2023-05-10T12:04:10.455Z,45.04
2023-05-10T12:05:10.412Z,45.17
2023-05-10T12:06:10.375Z,45.08
2023-05-10T12:07:10.373Z,45.07
2023-05-10T12:08:10.371Z,44.96
2023-05-10T12:09:10.444Z,45.41
2023-05-10T12:10:10.388Z,45.92
2023-05-10T12:11:10.456Z,45.86
2023-05-10T12:12:10.518Z,45.71
2023-05-10T12:13:09.608Z,45.57
2023-05-10T12:14:10.646Z,45.94
2023-05-10T12:15:09.688Z,45.79
2023-05-10T12:16:10.759Z,45.78
2023-05-10T12:17:09.825Z,45.77
2023-05-10T12:18:10.895Z,45.66
2023-05-10T12:19:11.172Z,45.85
2023-05-10T12:20:09.992Z,45.73
2023-05-10T12:21:11.033Z,45.72
2023-05-10T12:22:11.089Z,45.70
2023-05-10T12:23:11.169Z,45.91
2023-05-10T12:24:10.251Z,45.96
2023-05-10T12:25:11.292Z,45.91
2023-05-10T12:26:10.352Z,45.88
2023-05-10T12:27:10.407Z,45.83
2023-05-10T12:28:11.452Z,45.62
2023-05-10T12:29:10.555Z,45.53
2023-05-10T12:30:11.609Z,45.70
2023-05-10T12:31:10.601Z,45.65
2023-05-10T12:32:10.770Z,46.14
2023-05-10T12:33:10.846Z,45.85
2023-05-10T12:34:10.765Z,45.46
2023-05-10T12:35:11.787Z,45.72
2023-05-10T12:36:11.834Z,45.35
2023-05-10T12:37:10.897Z,45.06
2023-05-10T12:38:11.929Z,45.12
2023-05-10T12:39:10.990Z,44.89
2023-05-10T12:40:11.015Z,45.18
2023-05-10T12:41:12.093Z,44.70
2023-05-10T12:42:11.205Z,44.77
2023-05-10T12:43:11.146Z,44.77
2023-05-10T12:44:12.255Z,44.85
2023-05-10T12:45:12.237Z,44.70
2023-05-10T12:46:11.327Z,44.88
2023-05-10T12:47:12.317Z,44.80
2023-05-10T12:48:11.423Z,44.67
2023-05-10T12:49:11.453Z,45.22
2023-05-10T12:50:11.507Z,44.94
2023-05-10T12:51:11.493Z,44.86
2023-05-10T12:52:11.554Z,45.05
2023-05-10T12:53:12.585Z,45.33
2023-05-10T12:54:12.629Z,44.82
2023-05-10T12:55:12.670Z,44.66
2023-05-10T12:56:12.701Z,44.61
2023-05-10T12:57:11.726Z,44.57
2023-05-10T12:58:15.782Z,44.47
2023-05-10T12:59:12.852Z,44.69
2023-05-10T13:00:12.786Z,44.76
2023-05-10T13:01:11.796Z,44.58
2023-05-10T13:02:12.744Z,44.74
2023-05-10T13:03:12.750Z,44.93
2023-05-10T13:04:12.858Z,45.23
2023-05-10T13:05:12.766Z,44.72
2023-05-10T13:06:11.715Z,44.47
2023-05-10T13:07:12.721Z,45.07
2023-05-10T13:08:11.702Z,45.27
2023-05-10T13:09:11.718Z,44.89
2023-05-10T13:10:12.697Z,44.71
2023-05-10T13:11:11.689Z,44.76
2023-05-10T13:12:12.678Z,44.69
2023-05-10T13:13:11.680Z,45.01
2023-05-10T13:14:12.737Z,44.93
2023-05-10T13:15:11.781Z,44.95
2023-05-10T13:16:11.809Z,44.88
2023-05-10T13:17:12.881Z,44.86
2023-05-10T13:18:11.853Z,45.35
2023-05-10T13:19:11.949Z,44.83
2023-05-10T13:20:11.923Z,45.28
2023-05-10T13:21:12.965Z,45.00
2023-05-10T13:22:12.980Z,44.90
2023-05-10T13:23:12.012Z,45.52
2023-05-10T13:24:12.042Z,44.96
2023-05-10T13:25:13.072Z,44.80
2023-05-10T13:26:13.107Z,45.21
2023-05-10T13:27:12.154Z,44.85
2023-05-10T13:28:13.180Z,44.64
2023-05-10T13:29:13.211Z,44.57
2023-05-10T13:30:13.271Z,44.44
2023-05-10T13:31:13.298Z,44.53
2023-05-10T13:32:13.327Z,44.51
2023-05-10T13:33:13.364Z,44.53
2023-05-10T13:34:12.354Z,44.54
2023-05-10T13:35:13.374Z,44.78
2023-05-10T13:36:13.400Z,44.69
2023-05-10T13:37:12.428Z,44.88
2023-05-10T13:38:12.452Z,44.75
2023-05-10T13:39:13.477Z,44.79
2023-05-10T13:40:12.599Z,44.73
2023-05-10T13:41:12.511Z,44.89
2023-05-10T13:42:12.538Z,45.08
2023-05-10T13:43:13.574Z,45.20
2023-05-10T13:44:13.587Z,45.69
2023-05-10T13:45:13.608Z,45.99
2023-05-10T13:46:13.711Z,46.19
2023-05-10T13:47:13.675Z,45.86
2023-05-10T13:48:13.738Z,47.13
2023-05-10T13:49:13.754Z,47.22
2023-05-10T13:50:12.828Z,47.33
2023-05-10T13:51:12.845Z,46.37
2023-05-10T13:52:13.865Z,46.14
2023-05-10T13:53:13.911Z,46.01
2023-05-10T13:54:13.918Z,45.95
2023-05-10T13:55:12.986Z,45.37
2023-05-10T13:56:13.988Z,45.44
2023-05-10T13:57:14.056Z,45.83
2023-05-10T13:58:14.053Z,45.24
2023-05-10T13:59:14.095Z,44.94
2023-05-10T14:00:14.146Z,44.81
2023-05-10T14:01:14.199Z,44.62
2023-05-10T14:02:13.367Z,44.36
2023-05-10T14:03:13.377Z,45.05
2023-05-10T14:04:13.336Z,44.39
2023-05-10T14:05:14.402Z,44.25
2023-05-10T14:06:13.416Z,44.31
2023-05-10T14:07:14.471Z,44.68
2023-05-10T14:08:14.525Z,45.81
2023-05-10T14:09:14.592Z,48.04
2023-05-10T14:10:14.648Z,49.20
2023-05-10T14:11:14.706Z,48.43
2023-05-10T14:12:14.905Z,48.37
2023-05-10T14:13:14.842Z,47.01
2023-05-10T14:14:14.908Z,46.41
2023-05-10T14:15:15.147Z,46.15
2023-05-10T14:16:14.053Z,46.06
2023-05-10T14:17:14.009Z,46.09
2023-05-10T14:18:15.013Z,46.06
2023-05-10T14:19:15.009Z,46.07
2023-05-10T14:20:15.051Z,45.96
2023-05-10T14:21:14.007Z,47.38
2023-05-10T14:22:15.015Z,47.84
2023-05-10T14:23:14.010Z,48.13
2023-05-10T14:24:14.026Z,47.78
2023-05-10T14:25:15.292Z,47.66
2023-05-10T14:26:14.026Z,47.64
2023-05-10T14:27:14.031Z,47.58
2023-05-10T14:28:14.061Z,47.40
2023-05-10T14:29:14.046Z,47.43
2023-05-10T14:30:15.063Z,46.83
2023-05-10T14:31:15.074Z,46.48
2023-05-10T14:32:14.185Z,45.96
2023-05-10T14:33:15.150Z,45.68
2023-05-10T14:34:15.195Z,45.20
2023-05-10T14:35:17.612Z,45.23
2023-05-10T14:36:15.215Z,45.28
2023-05-10T14:37:15.194Z,45.32
2023-05-10T14:38:15.174Z,45.34
2023-05-10T14:39:14.199Z,45.45
2023-05-10T14:40:15.178Z,45.57
2023-05-10T14:41:14.154Z,45.63
2023-05-10T14:42:14.170Z,45.80
2023-05-10T14:43:15.150Z,45.77
2023-05-10T14:44:15.138Z,45.85
2023-05-10T14:45:14.149Z,45.80
2023-05-10T14:46:14.125Z,45.62
2023-05-10T14:47:14.125Z,45.66
2023-05-10T14:48:14.117Z,45.69
2023-05-10T14:49:15.103Z,45.70
2023-05-10T14:50:21.689Z,45.94
2023-05-10T14:51:15.095Z,46.11
2023-05-10T14:52:15.099Z,46.16
2023-05-10T14:53:15.073Z,45.39
2023-05-10T14:54:14.068Z,45.32
2023-05-10T14:55:15.225Z,45.17
2023-05-10T14:56:15.056Z,45.21
2023-05-10T14:57:14.046Z,45.42
2023-05-10T14:58:15.043Z,45.15
2023-05-10T14:59:15.043Z,44.36
2023-05-10T15:00:14.043Z,44.10
2023-05-10T15:01:15.106Z,44.11
2023-05-10T15:02:14.120Z,44.24
2023-05-10T15:03:14.240Z,44.26
2023-05-10T15:04:14.128Z,44.50
2023-05-10T15:05:15.362Z,44.48
2023-05-10T15:06:15.133Z,44.29
2023-05-10T15:07:14.119Z,44.15
2023-05-10T15:08:14.130Z,44.24
2023-05-10T15:09:15.108Z,44.18
2023-05-10T15:10:14.115Z,44.02
2023-05-10T15:11:15.093Z,44.11
2023-05-10T15:12:15.084Z,44.06
2023-05-10T15:13:14.111Z,44.09
2023-05-10T15:14:14.135Z,44.12
2023-05-10T15:15:14.326Z,44.22
2023-05-10T15:16:15.293Z,44.11
2023-05-10T15:17:14.301Z,43.93
2023-05-10T15:18:14.355Z,43.78
2023-05-10T15:19:14.438Z,43.73
2023-05-10T15:20:14.466Z,43.60
2023-05-10T15:21:15.479Z,43.64
2023-05-10T15:22:15.511Z,43.70
2023-05-10T15:23:14.493Z,43.70
2023-05-10T15:24:15.595Z,43.66
2023-05-10T15:25:14.566Z,43.70
2023-05-10T15:26:15.538Z,43.65
2023-05-10T15:27:15.556Z,43.64
2023-05-10T15:28:14.548Z,43.56
2023-05-10T15:29:15.602Z,43.61
2023-05-10T16:41:05.730Z,44.36
2023-05-10T16:42:06.727Z,44.43
